Time;durP1;ratioP1;P1;durP2;ratioP2;P2;SDS_P1;SDS_P2;PMS_P1;PMS_P2;Temp;Humidity;BMP_temperature;BMP_pressure;BME280_temperature;BME280_humidity;BME280_pressure;Samples;Min_cycle;Max_cycle;Signal;HPM_P1;HPM_P2
2023/08/01 00:02:11;;;;;;;2.03;1.92;;;17.00;99.90;;;;;;5075977;28;20043;-93
2023/08/01 00:04:39;;;;;;;1.83;1.73;;;16.90;99.90;;;;;;5091411;27;20035;-93
2023/08/01 00:07:08;;;;;;;1.38;1.38;;;16.90;99.90;;;;;;5080012;28;20189;-95
2023/08/01 00:09:33;;;;;;;2.17;2.08;;;17.00;99.90;;;;;;5077699;28;20048;-90
2023/08/01 00:12:08;;;;;;;1.98;1.88;;;17.50;99.90;;;;;;5076163;28;20085;-95
2023/08/01 00:14:36;;;;;;;2.17;2.08;;;17.10;99.90;;;;;;5070031;27;20296;-93
2023/08/01 00:17:05;;;;;;;2.00;1.90;;;17.10;99.90;;;;;;5075840;28;20120;-94
2023/08/01 00:19:33;;;;;;;1.98;1.88;;;17.10;99.90;;;;;;5074620;27;20054;-96
2023/08/01 00:21:59;;;;;;;1.70;1.60;;;17.60;99.90;;;;;;5077217;27;20047;-95
2023/08/01 00:24:25;;;;;;;2.15;2.05;;;17.60;99.90;;;;;;5077215;27;20051;-92
2023/08/01 00:27:35;;;;;;;1.98;1.88;;;17.30;99.90;;;;;;5072788;28;20043;-96
2023/08/01 00:30:01;;;;;;;2.88;2.75;;;17.20;99.90;;;;;;5077363;28;20051;-92
2023/08/01 00:35:25;;;;;;;1.52;1.42;;;17.60;99.90;;;;;;5060977;28;20047;-92
2023/08/01 00:37:51;;;;;;;2.08;1.98;;;16.80;99.90;;;;;;5059619;28;20043;-89
2023/08/01 00:40:29;;;;;;;2.15;2.05;;;16.90;99.90;;;;;;5075631;28;20035;-93
2023/08/01 00:46:22;;;;;;;2.35;2.25;;;17.20;99.90;;;;;;5023354;28;20051;-96
2023/08/01 00:48:48;;;;;;;2.15;2.05;;;16.90;99.90;;;;;;5003732;28;20050;-92
2023/08/01 00:51:17;;;;;;;2.55;2.45;;;17.00;99.90;;;;;;5068408;28;20056;-95
2023/08/01 00:54:11;;;;;;;1.98;1.88;;;16.90;99.90;;;;;;5075086;28;20043;-94
2023/08/01 00:56:37;;;;;;;2.35;2.25;;;17.00;99.90;;;;;;5072697;28;20086;-91
2023/08/01 00:59:15;;;;;;;1.80;1.70;;;16.90;99.90;;;;;;5092739;28;20438;-92
2023/08/01 01:01:48;;;;;;;1.98;1.88;;;17.40;99.90;;;;;;5073692;28;20123;-96
2023/08/01 01:04:14;;;;;;;2.45;2.35;;;17.20;99.90;;;;;;5075971;28;20039;-93
2023/08/01 01:07:17;;;;;;;1.88;1.77;;;16.90;99.90;;;;;;5077500;28;20055;-93
2023/08/01 01:10:08;;;;;;;1.98;1.88;;;17.50;99.90;;;;;;5045338;28;20051;-93
2023/08/01 01:12:44;;;;;;;;;;;;;;;;;;;;;
2023/08/01 01:15:22;;;;;;;1.30;1.30;;;17.60;99.90;;;;;;5066691;28;20052;-94
2023/08/01 01:18:00;;;;;;;2.10;2.00;;;17.00;99.90;;;;;;5071535;27;20832;-95
2023/08/01 01:20:55;;;;;;;2.80;2.70;;;17.10;99.90;;;;;;5070321;28;20198;-94
2023/08/01 01:23:25;;;;;;;1.50;1.50;;;16.80;99.90;;;;;;5050411;28;20041;-96
2023/08/01 01:25:52;;;;;;;2.15;2.05;;;17.00;99.90;;;;;;5071659;28;20044;-95
2023/08/01 01:28:50;;;;;;;;;;;;;;;;;;;;;
2023/08/01 01:31:18;;;;;;;1.33;1.33;;;17.30;99.90;;;;;;5086524;28;20044;-94
2023/08/01 01:33:50;;;;;;;1.90;1.80;;;16.90;99.90;;;;;;5071219;28;20511;-95
2023/08/01 01:36:16;;;;;;;1.88;1.77;;;17.20;99.90;;;;;;5072982;28;20041;-94
2023/08/01 01:38:42;;;;;;;2.25;2.15;;;16.90;99.90;;;;;;5069143;28;20866;-91
2023/08/01 01:41:07;;;;;;;2.10;2.00;;;17.20;99.90;;;;;;5076190;27;20456;-91
2023/08/01 01:43:33;;;;;;;1.67;1.58;;;17.40;99.90;;;;;;5091247;27;20571;-93
2023/08/01 01:46:00;;;;;;;2.00;1.90;;;17.40;99.90;;;;;;5073835;28;20052;-91
2023/08/01 01:48:26;;;;;;;1.92;1.85;;;17.40;99.90;;;;;;5084924;28;20734;-92
2023/08/01 01:50:51;;;;;;;1.95;1.85;;;17.40;99.90;;;;;;5075736;28;20043;-93
2023/08/01 01:53:17;;;;;;;2.25;2.15;;;17.30;99.90;;;;;;5071757;28;20036;-93
2023/08/01 01:55:43;;;;;;;1.85;1.77;;;17.20;99.90;;;;;;5074037;28;20040;-91
2023/08/01 01:58:09;;;;;;;2.20;2.10;;;16.80;99.90;;;;;;5087339;28;20039;-93
2023/08/01 02:00:34;;;;;;;2.25;2.15;;;16.80;99.90;;;;;;5089147;28;20380;-93
2023/08/01 02:03:02;;;;;;;1.63;1.60;;;17.00;99.90;;;;;;5087076;28;20079;-90
2023/08/01 02:05:28;;;;;;;2.25;2.15;;;17.10;99.90;;;;;;5065775;28;20118;-93
2023/08/01 02:07:54;;;;;;;2.45;2.35;;;17.30;99.90;;;;;;5076790;28;20369;-95
2023/08/01 02:10:20;;;;;;;1.90;1.80;;;17.10;99.90;;;;;;5076467;28;20100;-92
2023/08/01 02:12:46;;;;;;;1.77;1.70;;;16.60;99.90;;;;;;5069960;28;20039;-92
2023/08/01 02:15:12;;;;;;;2.30;2.20;;;16.70;99.90;;;;;;5074973;28;20051;-91
2023/08/01 02:17:43;;;;;;;1.88;1.77;;;17.20;99.90;;;;;;5072971;28;20039;-96
2023/08/01 02:20:09;;;;;;;1.77;1.70;;;16.60;99.90;;;;;;5069404;28;20067;-92
2023/08/01 02:22:34;;;;;;;1.83;1.73;;;16.90;99.90;;;;;;5090475;28;20043;-92
2023/08/01 02:25:00;;;;;;;1.67;1.60;;;16.50;99.90;;;;;;5087330;28;20599;-92
2023/08/01 02:27:30;;;;;;;1.98;1.88;;;16.90;99.90;;;;;;5075579;28;20039;-95
2023/08/01 02:30:02;;;;;;;1.75;1.70;;;16.80;99.90;;;;;;5077892;28;20392;-95
2023/08/01 02:32:28;;;;;;;2.25;2.15;;;17.00;99.90;;;;;;5072745;28;20039;-95
2023/08/01 02:34:54;;;;;;;2.03;1.92;;;16.40;99.90;;;;;;5075411;28;20156;-93
2023/08/01 02:37:27;;;;;;;2.45;2.35;;;16.80;99.90;;;;;;5071060;28;20049;-93
2023/08/01 02:40:02;;;;;;;2.25;2.15;;;16.60;99.90;;;;;;5075182;28;20043;-95
2023/08/01 02:42:34;;;;;;;1.25;1.25;;;16.70;99.90;;;;;;5068100;28;20078;-95
2023/08/01 02:45:00;;;;;;;1.60;1.50;;;16.40;99.90;;;;;;5071887;28;20044;-93
2023/08/01 02:47:28;;;;;;;1.58;1.48;;;16.10;99.90;;;;;;5077011;28;20085;-95
2023/08/01 02:50:00;;;;;;;1.45;1.38;;;16.30;99.90;;;;;;5074355;28;20107;-95
2023/08/01 02:52:26;;;;;;;2.08;1.98;;;16.10;99.90;;;;;;5076573;28;20359;-95
2023/08/01 02:54:51;;;;;;;2.88;2.75;;;16.70;99.90;;;;;;5076294;28;20051;-94
2023/08/01 02:57:19;;;;;;;2.17;2.08;;;16.70;99.90;;;;;;5071393;28;20074;-94
2023/08/01 03:00:19;;;;;;;1.70;1.60;;;16.70;99.90;;;;;;5073951;28;20042;-96
2023/08/01 03:02:45;;;;;;;1.52;1.42;;;16.70;99.90;;;;;;5073470;28;20065;-93
2023/08/01 03:06:03;;;;;;;1.83;1.73;;;16.10;99.90;;;;;;5076431;28;20055;-94
2023/08/01 03:08:22;;;;;;;1.98;1.88;;;16.50;99.90;;;;;;5086104;28;20078;-91
2023/08/01 03:10:50;;;;;;;1.40;1.35;;;16.10;99.90;;;;;;5067694;28;20471;-93
2023/08/01 03:13:25;;;;;;;1.58;1.48;;;16.60;99.90;;;;;;5072531;28;20082;-96
2023/08/01 03:15:51;;;;;;;1.65;1.55;;;16.60;99.90;;;;;;5073218;28;20289;-90
2023/08/01 03:18:17;;;;;;;1.67;1.58;;;16.70;99.90;;;;;;5072321;28;20529;-92
2023/08/01 03:20:45;;;;;;;1.23;1.23;;;16.60;99.90;;;;;;5071575;28;20042;-93
2023/08/01 03:23:17;;;;;;;1.77;1.67;;;16.70;99.90;;;;;;5074617;28;20044;-95
2023/08/01 03:25:43;;;;;;;1.63;1.52;;;16.60;99.90;;;;;;5072817;28;20036;-91
2023/08/01 03:28:09;;;;;;;1.20;1.20;;;16.20;99.90;;;;;;5071032;28;20105;-92
2023/08/01 03:30:35;;;;;;;2.22;2.13;;;16.00;99.90;;;;;;5077701;28;20039;-93
2023/08/01 03:33:04;;;;;;;1.65;1.55;;;16.50;99.90;;;;;;5076984;28;20039;-91
2023/08/01 03:35:36;;;;;;;1.20;1.20;;;16.30;99.90;;;;;;5079877;27;20040;-92
2023/08/01 03:38:01;;;;;;;2.05;1.95;;;16.40;99.90;;;;;;5076422;28;20100;-92
2023/08/01 03:40:57;;;;;;;2.17;2.08;;;16.50;99.90;;;;;;5077713;28;20085;-96
2023/08/01 03:43:47;;;;;;;1.73;1.63;;;16.00;99.90;;;;;;5071222;28;20504;-94
2023/08/01 03:46:13;;;;;;;2.35;2.25;;;16.20;99.90;;;;;;5071615;28;20050;-91
2023/08/01 03:49:09;;;;;;;2.55;2.45;;;16.30;99.90;;;;;;5078756;28;20032;-96
2023/08/01 03:51:35;;;;;;;2.20;2.10;;;15.90;99.90;;;;;;5076281;28;20075;-90
2023/08/01 03:54:00;;;;;;;2.80;2.70;;;16.40;99.90;;;;;;5076744;28;20071;-93
2023/08/01 03:56:27;;;;;;;2.63;2.53;;;16.20;99.90;;;;;;5076397;27;20039;-91
2023/08/01 03:58:53;;;;;;;3.00;2.88;;;16.10;99.90;;;;;;5078359;28;20096;-92
2023/08/01 04:01:21;;;;;;;2.30;2.20;;;16.00;99.90;;;;;;5094260;28;20431;-92
2023/08/01 04:03:47;;;;;;;2.70;2.60;;;15.80;99.90;;;;;;5075035;28;20044;-88
2023/08/01 04:06:15;;;;;;;1.95;1.85;;;16.10;99.90;;;;;;5072805;28;20462;-92
2023/08/01 04:08:42;;;;;;;2.47;2.38;;;15.80;99.90;;;;;;5073570;28;20051;-92
2023/08/01 04:11:14;;;;;;;2.28;2.17;;;16.30;99.90;;;;;;5073506;28;20047;-94
2023/08/01 04:13:42;;;;;;;2.00;1.90;;;15.90;99.90;;;;;;5088677;28;20043;-91
2023/08/01 04:16:08;;;;;;;2.60;2.50;;;15.90;99.90;;;;;;5067567;28;20074;-89
2023/08/01 04:18:34;;;;;;;2.20;2.10;;;16.30;99.90;;;;;;5073712;28;20052;-92
2023/08/01 04:20:59;;;;;;;2.50;2.40;;;16.30;99.90;;;;;;5071676;28;20039;-88
2023/08/01 04:23:25;;;;;;;2.28;2.17;;;16.30;99.90;;;;;;5071876;28;20044;-91
2023/08/01 04:25:51;;;;;;;2.10;2.00;;;15.90;99.90;;;;;;5065856;28;20044;-85
2023/08/01 04:28:16;;;;;;;2.80;2.70;;;15.90;99.90;;;;;;5080892;28;20735;-85
2023/08/01 04:30:48;;;;;;;2.25;2.15;;;16.00;99.90;;;;;;5086476;28;20100;-86
2023/08/01 04:33:13;;;;;;;2.10;2.00;;;15.90;99.90;;;;;;5057903;28;20047;-83
2023/08/01 04:35:39;;;;;;;2.55;2.45;;;16.10;99.90;;;;;;5080788;28;20051;-84
2023/08/01 04:38:04;;;;;;;2.20;2.10;;;15.90;99.90;;;;;;5084395;28;20047;-84
2023/08/01 04:40:30;;;;;;;2.90;2.70;;;15.80;99.90;;;;;;5079837;28;20460;-84
2023/08/01 04:42:56;;;;;;;2.83;2.72;;;16.20;99.90;;;;;;5084706;28;20054;-84
2023/08/01 04:45:21;;;;;;;2.47;2.38;;;15.90;99.90;;;;;;5081771;28;21965;-87
2023/08/01 04:47:47;;;;;;;2.20;2.10;;;15.90;99.90;;;;;;5078622;28;20126;-85
2023/08/01 04:50:13;;;;;;;3.28;3.08;;;16.30;99.90;;;;;;5084859;28;20059;-85
2023/08/01 04:52:38;;;;;;;2.55;2.45;;;15.80;99.90;;;;;;5080209;27;20047;-84
2023/08/01 04:55:05;;;;;;;2.15;2.05;;;15.90;99.90;;;;;;5080695;28;20668;-85
2023/08/01 04:57:30;;;;;;;3.03;2.83;;;16.30;99.90;;;;;;5082170;28;20206;-85
2023/08/01 04:59:56;;;;;;;2.10;2.00;;;15.90;99.90;;;;;;5080398;28;20648;-85
2023/08/01 05:02:22;;;;;;;3.08;2.88;;;16.20;99.90;;;;;;5080589;28;20051;-85
2023/08/01 05:04:48;;;;;;;2.05;1.95;;;16.00;99.90;;;;;;5081275;28;20660;-85
2023/08/01 05:07:13;;;;;;;2.53;2.42;;;16.20;99.90;;;;;;5081520;27;20500;-85
2023/08/01 05:09:39;;;;;;;1.80;1.70;;;16.20;99.90;;;;;;5083331;28;20048;-86
2023/08/01 05:12:05;;;;;;;1.75;1.65;;;16.00;99.90;;;;;;5082662;28;20044;-86
2023/08/01 05:14:31;;;;;;;2.50;2.40;;;16.50;99.90;;;;;;5084572;28;20050;-85
2023/08/01 05:16:56;;;;;;;2.30;2.20;;;16.30;99.90;;;;;;5068258;28;20047;-86
2023/08/01 05:19:22;;;;;;;2.30;2.20;;;16.60;99.90;;;;;;5081859;28;20048;-88
2023/08/01 05:21:48;;;;;;;2.30;2.20;;;16.10;99.90;;;;;;5085865;28;20454;-86
2023/08/01 05:24:14;;;;;;;2.20;2.10;;;16.20;99.90;;;;;;5061373;28;20166;-86
2023/08/01 05:26:40;;;;;;;2.00;1.90;;;16.50;99.90;;;;;;5100340;28;20143;-88
2023/08/01 05:29:05;;;;;;;2.25;2.15;;;16.10;99.90;;;;;;5068813;28;20608;-86
2023/08/01 05:31:31;;;;;;;2.10;2.00;;;16.60;99.90;;;;;;5081548;28;20467;-88
2023/08/01 05:33:56;;;;;;;1.50;1.40;;;16.70;99.90;;;;;;5085362;28;20564;-86
2023/08/01 05:36:22;;;;;;;1.70;1.60;;;16.90;99.90;;;;;;5085332;28;20572;-86
2023/08/01 05:38:48;;;;;;;2.83;2.72;;;16.90;99.90;;;;;;5081839;28;20043;-88
2023/08/01 05:41:13;;;;;;;1.85;1.75;;;16.30;99.90;;;;;;5065822;28;20051;-86
2023/08/01 05:43:39;;;;;;;2.15;2.05;;;16.30;99.90;;;;;;5079483;27;20488;-86
2023/08/01 05:46:04;;;;;;;1.85;1.75;;;16.70;99.90;;;;;;5078405;28;20047;-84
2023/08/01 05:48:30;;;;;;;2.50;2.40;;;16.10;99.90;;;;;;5078138;28;20523;-87
2023/08/01 05:50:56;;;;;;;2.67;2.58;;;16.10;99.90;;;;;;5083834;28;20138;-83
2023/08/01 05:53:22;;;;;;;2.78;2.67;;;16.10;99.90;;;;;;5082926;28;20047;-82
2023/08/01 05:55:47;;;;;;;1.75;1.65;;;16.40;99.90;;;;;;5080828;28;20043;-85
2023/08/01 05:58:13;;;;;;;2.05;1.95;;;16.60;99.90;;;;;;5074327;28;20051;-82
2023/08/01 06:00:39;;;;;;;2.10;2.00;;;16.70;99.90;;;;;;5080292;28;20176;-89
2023/08/01 06:03:04;;;;;;;1.83;1.73;;;16.20;99.90;;;;;;5062936;28;20040;-85
2023/08/01 06:05:30;;;;;;;2.05;1.95;;;16.50;99.90;;;;;;5065944;28;20039;-88
2023/08/01 06:07:56;;;;;;;2.20;2.10;;;16.50;99.90;;;;;;5059042;28;20067;-84
2023/08/01 06:10:22;;;;;;;1.73;1.63;;;16.80;99.90;;;;;;5067784;28;20071;-84
2023/08/01 06:12:47;;;;;;;1.63;1.52;;;16.30;99.90;;;;;;5084130;27;20465;-85
2023/08/01 06:15:13;;;;;;;3.38;3.20;;;16.60;99.90;;;;;;5077431;28;20081;-82
2023/08/01 06:17:39;;;;;;;1.55;1.45;;;16.20;99.90;;;;;;5082262;28;20053;-84
2023/08/01 06:20:05;;;;;;;2.25;2.15;;;16.60;99.90;;;;;;5078504;28;20126;-88
2023/08/01 06:22:31;;;;;;;1.40;1.40;;;16.30;99.90;;;;;;5069027;28;20047;-86
2023/08/01 06:24:56;;;;;;;2.03;1.92;;;16.60;99.90;;;;;;5084326;28;20051;-85
2023/08/01 06:27:22;;;;;;;1.50;1.40;;;16.30;99.90;;;;;;5068792;28;20088;-88
2023/08/01 06:29:48;;;;;;;2.10;2.00;;;16.40;99.90;;;;;;5083200;28;20044;-85
2023/08/01 06:32:13;;;;;;;2.20;2.10;;;16.50;99.90;;;;;;5081702;28;20050;-85
2023/08/01 06:34:39;;;;;;;2.13;2.03;;;16.60;99.90;;;;;;5077895;28;20080;-86
2023/08/01 06:37:05;;;;;;;1.48;1.40;;;16.60;99.90;;;;;;5067522;28;20048;-86
2023/08/01 06:39:30;;;;;;;1.30;1.30;;;16.10;99.90;;;;;;5071588;28;20134;-84
2023/08/01 06:41:56;;;;;;;1.90;1.80;;;16.00;99.90;;;;;;5064209;28;20043;-87
2023/08/01 06:44:22;;;;;;;1.55;1.45;;;16.10;99.90;;;;;;5061892;28;20520;-85
2023/08/01 06:46:47;;;;;;;1.25;1.25;;;16.70;99.90;;;;;;5078478;28;20101;-88
2023/08/01 06:49:16;;;;;;;1.30;1.30;;;16.10;99.90;;;;;;5084353;28;20122;-92
2023/08/01 06:51:42;;;;;;;2.20;2.10;;;16.50;99.90;;;;;;5072426;28;20043;-89
2023/08/01 06:54:08;;;;;;;1.70;1.60;;;16.60;99.90;;;;;;5071645;28;20058;-90
2023/08/01 06:56:34;;;;;;;1.33;1.30;;;16.20;99.90;;;;;;5072214;28;20170;-92
2023/08/01 06:58:59;;;;;;;2.00;1.90;;;16.90;99.90;;;;;;5068395;28;20055;-90
2023/08/01 07:01:28;;;;;;;1.73;1.63;;;17.00;99.90;;;;;;5087330;28;20047;-90
2023/08/01 07:03:53;;;;;;;1.55;1.45;;;16.80;99.90;;;;;;5087069;27;20048;-94
2023/08/01 07:06:19;;;;;;;1.63;1.52;;;16.40;99.90;;;;;;5077463;28;20129;-91
2023/08/01 07:08:48;;;;;;;2.28;2.17;;;17.00;99.90;;;;;;5075665;27;20047;-90
2023/08/01 07:11:13;;;;;;;2.10;2.00;;;16.90;99.90;;;;;;5074745;28;20047;-88
2023/08/01 07:13:39;;;;;;;2.88;2.75;;;16.50;99.90;;;;;;5094509;27;20043;-91
2023/08/01 07:16:05;;;;;;;1.77;1.67;;;17.00;99.90;;;;;;5073338;28;20036;-92
2023/08/01 07:18:57;;;;;;;2.28;2.17;;;17.10;99.90;;;;;;5080045;28;20081;-96
2023/08/01 07:21:26;;;;;;;2.53;2.42;;;17.00;99.90;;;;;;5079620;28;20074;-94
2023/08/01 07:24:05;;;;;;;;;;;;;;;;;;;;;
2023/08/01 07:27:16;;;;;;;2.60;2.47;;;17.10;99.90;;;;;;5094741;28;21573;-95
2023/08/01 07:29:42;;;;;;;1.90;1.80;;;16.90;99.90;;;;;;5075178;27;20067;-91
2023/08/01 07:32:07;;;;;;;2.22;2.13;;;16.70;99.90;;;;;;5078942;28;20488;-90
2023/08/01 07:34:33;;;;;;;2.58;2.47;;;16.70;99.90;;;;;;5091413;28;20039;-91
2023/08/01 07:36:59;;;;;;;2.78;2.67;;;16.90;99.90;;;;;;5075176;28;20450;-87
2023/08/01 07:39:24;;;;;;;1.70;1.60;;;17.10;99.90;;;;;;5090810;28;20048;-90
2023/08/01 07:41:50;;;;;;;3.25;3.08;;;16.70;99.90;;;;;;5075210;28;20048;-90
2023/08/01 07:44:16;;;;;;;2.70;2.60;;;17.00;99.90;;;;;;5075159;28;20057;-86
2023/08/01 07:46:41;;;;;;;2.63;2.53;;;17.10;99.90;;;;;;5068329;28;20488;-87
2023/08/01 07:49:07;;;;;;;2.50;2.40;;;16.80;99.90;;;;;;5090329;28;20059;-92
2023/08/01 07:51:33;;;;;;;2.90;2.78;;;16.90;99.90;;;;;;5074398;28;20472;-88
2023/08/01 07:53:59;;;;;;;2.70;2.60;;;16.60;99.90;;;;;;5066354;28;20134;-90
2023/08/01 07:56:32;;;;;;;2.58;2.47;;;16.70;99.90;;;;;;5072778;28;20082;-92
2023/08/01 07:58:58;;;;;;;3.13;3.03;;;16.90;99.90;;;;;;5080151;27;20038;-88
2023/08/01 08:01:24;;;;;;;2.20;2.10;;;16.70;99.90;;;;;;5071896;28;21009;-88
2023/08/01 08:03:49;;;;;;;2.92;2.83;;;16.60;99.90;;;;;;5064413;28;20062;-87
2023/08/01 08:06:15;;;;;;;2.75;2.65;;;16.40;99.90;;;;;;5078646;27;20179;-87
2023/08/01 08:08:41;;;;;;;2.38;2.28;;;16.50;99.90;;;;;;5080112;28;20080;-89
2023/08/01 08:11:06;;;;;;;1.95;1.85;;;16.40;99.90;;;;;;5082319;28;20036;-87
2023/08/01 08:13:32;;;;;;;1.52;1.42;;;16.30;99.90;;;;;;5087105;28;20047;-87
2023/08/01 08:15:58;;;;;;;1.63;1.52;;;16.30;99.90;;;;;;5086875;28;20060;-89
2023/08/01 08:18:24;;;;;;;1.73;1.63;;;16.80;99.90;;;;;;5070599;28;20126;-88
2023/08/01 08:20:50;;;;;;;1.67;1.58;;;16.70;99.90;;;;;;5071193;28;20118;-90
2023/08/01 08:23:16;;;;;;;1.50;1.40;;;16.80;99.90;;;;;;5087996;28;20063;-85
2023/08/01 08:25:44;;;;;;;1.50;1.40;;;16.90;99.90;;;;;;5071998;28;20043;-90
2023/08/01 08:28:12;;;;;;;1.65;1.55;;;16.80;99.90;;;;;;5069990;28;20055;-85
2023/08/01 08:30:38;;;;;;;1.75;1.65;;;17.00;99.90;;;;;;5084553;28;20043;-86
2023/08/01 08:33:04;;;;;;;3.03;2.85;;;16.80;99.90;;;;;;5088038;28;20767;-85
2023/08/01 08:35:36;;;;;;;2.63;2.53;;;17.10;99.90;;;;;;5085346;28;20044;-87
2023/08/01 08:38:06;;;;;;;2.15;2.05;;;16.80;99.90;;;;;;5071194;28;20043;-87
2023/08/01 08:40:33;;;;;;;2.40;2.30;;;17.20;99.90;;;;;;5084680;28;20076;-86
2023/08/01 08:43:03;;;;;;;2.70;2.60;;;17.20;99.90;;;;;;5085903;28;20051;-89
2023/08/01 08:45:33;;;;;;;2.67;2.58;;;16.70;99.90;;;;;;5085290;28;20162;-84
2023/08/01 08:48:08;;;;;;;2.97;2.78;;;16.70;99.90;;;;;;5088685;27;20071;-84
2023/08/01 08:50:35;;;;;;;2.83;2.70;;;17.10;99.90;;;;;;5078894;28;20453;-83
2023/08/01 08:53:02;;;;;;;2.47;2.38;;;17.40;99.90;;;;;;5082206;28;20049;-85
2023/08/01 08:55:28;;;;;;;3.50;3.30;;;17.60;99.90;;;;;;5085181;28;20135;-85
2023/08/01 08:57:55;;;;;;;3.75;3.55;;;17.90;99.90;;;;;;5069315;28;20112;-86
2023/08/01 09:00:21;;;;;;;3.35;3.15;;;17.80;99.90;;;;;;5087482;28;20674;-86
2023/08/01 09:02:47;;;;;;;4.50;4.20;;;18.00;99.90;;;;;;5085497;28;20040;-86
2023/08/01 09:05:13;;;;;;;4.43;4.13;;;18.10;99.90;;;;;;5088421;28;20061;-88
2023/08/01 09:07:42;;;;;;;4.35;4.13;;;18.80;99.90;;;;;;5069994;28;20050;-86
2023/08/01 09:10:08;;;;;;;4.82;4.53;;;18.80;99.90;;;;;;5105040;27;20561;-87
2023/08/01 09:12:37;;;;;;;4.10;3.90;;;18.70;99.90;;;;;;5086122;28;20056;-91
2023/08/01 09:15:03;;;;;;;4.00;3.80;;;18.50;99.90;;;;;;5070588;27;20043;-87
2023/08/01 09:17:29;;;;;;;4.03;3.83;;;18.50;99.90;;;;;;5085443;28;20046;-88
2023/08/01 09:20:07;;;;;;;3.42;3.22;;;18.40;99.90;;;;;;5085117;28;20378;-90
2023/08/01 09:22:46;;;;;;;3.55;3.35;;;18.50;99.90;;;;;;5084965;28;20103;-87
2023/08/01 09:25:13;;;;;;;2.92;2.83;;;18.20;99.90;;;;;;5069788;28;20039;-89
2023/08/01 09:27:39;;;;;;;3.28;3.08;;;18.20;99.90;;;;;;5077845;28;20061;-87
2023/08/01 09:30:15;;;;;;;3.58;3.38;;;18.30;99.90;;;;;;5066821;28;20040;-94
2023/08/01 09:32:55;;;;;;;3.58;3.38;;;18.30;99.90;;;;;;5065186;28;20071;-84
2023/08/01 09:35:23;;;;;;;3.08;2.97;;;18.40;99.90;;;;;;5074498;28;20141;-84
2023/08/01 09:37:49;;;;;;;3.67;3.47;;;18.10;99.90;;;;;;5082778;28;20065;-85
2023/08/01 09:40:15;;;;;;;3.67;3.47;;;17.90;99.90;;;;;;5079879;28;20035;-86
2023/08/01 09:42:45;;;;;;;3.03;2.88;;;17.50;99.90;;;;;;5064808;28;20031;-86
2023/08/01 09:45:14;;;;;;;3.13;2.95;;;17.70;99.90;;;;;;5082563;28;20394;-85
2023/08/01 09:47:40;;;;;;;3.47;3.28;;;17.30;99.90;;;;;;5080448;28;20039;-85
2023/08/01 09:50:06;;;;;;;3.20;3.00;;;17.30;99.90;;;;;;5079115;28;20035;-83
2023/08/01 09:52:33;;;;;;;3.17;2.97;;;17.30;99.90;;;;;;5081980;28;20116;-83
2023/08/01 09:54:58;;;;;;;3.30;3.10;;;17.30;99.90;;;;;;5082419;28;20048;-84
2023/08/01 09:57:29;;;;;;;3.47;3.28;;;17.60;99.90;;;;;;5076309;28;20926;-84
2023/08/01 09:59:56;;;;;;;3.45;3.25;;;17.40;99.90;;;;;;5076478;28;20039;-84
2023/08/01 10:02:24;;;;;;;3.03;2.90;;;17.50;99.90;;;;;;5076588;28;20071;-84
2023/08/01 10:04:56;;;;;;;3.30;3.10;;;17.20;99.90;;;;;;5073126;28;20043;-83
2023/08/01 10:07:26;;;;;;;3.97;3.78;;;17.30;99.90;;;;;;5073849;28;20047;-84
2023/08/01 10:09:55;;;;;;;3.30;3.10;;;17.30;99.90;;;;;;5075430;28;20048;-84
2023/08/01 10:12:25;;;;;;;3.78;3.58;;;17.60;99.90;;;;;;5076188;28;20043;-86
2023/08/01 10:14:52;;;;;;;3.65;3.45;;;17.70;99.90;;;;;;5075944;28;20656;-85
2023/08/01 10:17:19;;;;;;;3.53;3.33;;;17.40;99.90;;;;;;5077369;28;20048;-87
2023/08/01 10:19:46;;;;;;;3.55;3.35;;;17.70;99.90;;;;;;5078482;27;20494;-84
2023/08/01 10:22:13;;;;;;;3.33;3.13;;;17.90;99.90;;;;;;5077465;28;20115;-85
2023/08/01 10:24:40;;;;;;;3.80;3.60;;;17.80;99.90;;;;;;5058683;28;20055;-87
2023/08/01 10:27:13;;;;;;;3.65;3.45;;;18.10;99.90;;;;;;5075081;28;20096;-85
2023/08/01 10:29:39;;;;;;;;;;;17.90;99.90;;;;;;5078078;28;20573;-84
2023/08/01 10:32:07;;;;;;;3.90;3.70;;;18.10;99.90;;;;;;5055275;28;20003;-85
2023/08/01 10:34:33;;;;;;;3.80;3.60;;;18.40;99.90;;;;;;5087560;28;20047;-85
2023/08/01 10:36:59;;;;;;;4.35;4.13;;;18.40;99.90;;;;;;5073771;28;20047;-87
2023/08/01 10:39:26;;;;;;;4.88;4.57;;;18.30;99.90;;;;;;5078266;27;20055;-85
2023/08/01 10:42:04;;;;;;;3.92;3.72;;;18.50;99.90;;;;;;5078399;28;20047;-83
2023/08/01 10:44:33;;;;;;;3.63;3.42;;;18.50;99.90;;;;;;5082892;28;20049;-86
2023/08/01 10:47:04;;;;;;;4.32;4.13;;;18.20;99.90;;;;;;5073963;28;20788;-85
2023/08/01 10:49:39;;;;;;;3.90;3.70;;;18.30;99.90;;;;;;5092533;28;20059;-88
2023/08/01 10:52:23;;;;;;;3.83;3.63;;;18.30;99.90;;;;;;5082695;27;20059;-90
2023/08/01 10:54:55;;;;;;;;;;;18.00;99.90;;;;;;5067870;28;20548;-90
2023/08/01 10:57:21;;;;;;;4.18;3.97;;;18.10;99.90;;;;;;5060967;27;19919;-88
2023/08/01 10:59:47;;;;;;;3.63;3.42;;;17.80;99.90;;;;;;5067790;28;20069;-87
2023/08/01 11:02:21;;;;;;;3.80;3.60;;;18.00;99.90;;;;;;5080046;28;20122;-90
2023/08/01 11:05:07;;;;;;;4.20;4.00;;;18.20;99.90;;;;;;5068252;28;20097;-86
2023/08/01 11:07:34;;;;;;;4.25;4.05;;;17.90;99.90;;;;;;5080155;28;20059;-84
2023/08/01 11:10:16;;;;;;;3.83;3.63;;;18.20;99.90;;;;;;5080448;28;20047;-85
2023/08/01 11:12:43;;;;;;;4.05;3.85;;;18.10;99.90;;;;;;5081135;28;20184;-88
2023/08/01 11:15:11;;;;;;;4.20;4.00;;;18.00;99.90;;;;;;5085965;28;20061;-91
2023/08/01 11:17:38;;;;;;;4.15;3.95;;;18.10;99.90;;;;;;5086887;28;20046;-87
2023/08/01 11:20:09;;;;;;;3.90;3.70;;;18.00;99.90;;;;;;5090228;28;20040;-95
2023/08/01 11:22:36;;;;;;;3.83;3.63;;;18.10;99.90;;;;;;5074166;28;20411;-88
2023/08/01 11:25:05;;;;;;;4.53;4.22;;;18.30;99.90;;;;;;5071576;28;20096;-93
2023/08/01 11:27:31;;;;;;;4.65;4.35;;;18.60;99.90;;;;;;5073145;27;20407;-92
2023/08/01 11:30:07;;;;;;;4.53;4.22;;;18.70;99.90;;;;;;5073018;28;20520;-94
2023/08/01 11:32:37;;;;;;;4.40;4.15;;;18.80;99.90;;;;;;5081167;28;20040;-84
2023/08/01 11:35:03;;;;;;;3.92;3.72;;;18.80;99.90;;;;;;5081174;27;20423;-89
2023/08/01 11:37:30;;;;;;;3.88;3.67;;;18.10;99.90;;;;;;5088665;27;20462;-89
2023/08/01 11:39:57;;;;;;;3.55;3.35;;;18.00;99.90;;;;;;5063351;28;20054;-86
2023/08/01 11:42:23;;;;;;;3.90;3.70;;;18.00;99.90;;;;;;5081395;27;20044;-87
2023/08/01 11:44:49;;;;;;;3.60;3.40;;;18.00;99.90;;;;;;5081779;28;20077;-88
2023/08/01 11:47:16;;;;;;;3.50;3.30;;;17.80;99.90;;;;;;5063027;27;20040;-86
2023/08/01 11:49:47;;;;;;;4.28;4.05;;;18.00;99.90;;;;;;5077572;27;20055;-87
2023/08/01 11:52:26;;;;;;;4.82;4.53;;;18.80;99.90;;;;;;5075691;28;20050;-86
2023/08/01 11:54:52;;;;;;;4.90;4.60;;;19.30;99.90;;;;;;5076662;28;20044;-88
2023/08/01 11:57:18;;;;;;;4.63;4.32;;;19.80;99.90;;;;;;5087543;27;20058;-86
2023/08/01 11:59:55;;;;;;;4.10;3.90;;;20.30;99.90;;;;;;5085461;27;20735;-95
2023/08/01 12:02:22;;;;;;;3.65;3.45;;;20.00;99.90;;;;;;5069096;28;20130;-91
2023/08/01 12:04:48;;;;;;;3.22;3.03;;;20.60;99.90;;;;;;5072787;27;20086;-88
2023/08/01 12:07:17;;;;;;;2.72;2.63;;;20.60;99.90;;;;;;5075548;28;20060;-95
2023/08/01 12:10:05;;;;;;;2.47;2.38;;;20.90;99.90;;;;;;5074049;27;20148;-93
2023/08/01 12:12:31;;;;;;;2.15;2.05;;;21.00;99.90;;;;;;5075263;28;20075;-89
2023/08/01 12:14:57;;;;;;;1.92;1.83;;;20.90;99.90;;;;;;5073986;28;20485;-92
2023/08/01 12:17:23;;;;;;;1.70;1.60;;;21.30;99.90;;;;;;5071993;28;20044;-88
2023/08/01 12:20:24;;;;;;;1.75;1.65;;;21.10;99.90;;;;;;5077728;27;20039;-93
2023/08/01 12:22:58;;;;;;;1.75;1.67;;;21.00;99.90;;;;;;5082443;28;20036;-93
2023/08/01 12:25:27;;;;;;;1.60;1.55;;;21.50;99.90;;;;;;5072895;28;20050;-93
2023/08/01 12:27:59;;;;;;;1.90;1.80;;;21.50;99.90;;;;;;5072788;27;20044;-93
2023/08/01 12:30:25;;;;;;;1.33;1.30;;;21.20;99.90;;;;;;5074191;27;20118;-90
2023/08/01 12:32:50;;;;;;;1.10;1.10;;;21.40;99.90;;;;;;5067888;28;20164;-90
2023/08/01 12:35:22;;;;;;;1.95;1.85;;;21.50;99.90;;;;;;5076016;28;20063;-94
2023/08/01 12:37:52;;;;;;;2.20;2.10;;;21.80;99.90;;;;;;5071414;27;20059;-95
2023/08/01 12:40:21;;;;;;;2.35;2.25;;;22.30;99.90;;;;;;5074220;27;20555;-93
2023/08/01 12:42:47;;;;;;;2.40;2.30;;;21.80;99.90;;;;;;5072435;27;20039;-90
2023/08/01 12:45:13;;;;;;;3.17;2.97;;;21.10;99.90;;;;;;5072577;28;20044;-91
2023/08/01 12:47:39;;;;;;;2.20;2.10;;;20.90;99.90;;;;;;5070318;28;20042;-91
2023/08/01 12:50:05;;;;;;;2.55;2.45;;;20.60;99.90;;;;;;5089409;28;20047;-89
2023/08/01 12:52:34;;;;;;;2.35;2.25;;;20.60;99.90;;;;;;5073854;28;20039;-93
2023/08/01 12:54:59;;;;;;;2.38;2.28;;;20.90;99.90;;;;;;5071375;28;20039;-91
2023/08/01 12:57:25;;;;;;;2.38;2.28;;;20.70;99.90;;;;;;5080886;28;20086;-92
2023/08/01 13:00:21;;;;;;;2.15;2.05;;;20.70;99.90;;;;;;5084582;28;20299;-96
2023/08/01 13:02:47;;;;;;;1.90;1.80;;;21.40;99.90;;;;;;5089071;28;20075;-88
2023/08/01 13:05:13;;;;;;;2.15;2.05;;;21.90;99.90;;;;;;5083325;28;20051;-86
2023/08/01 13:07:38;;;;;;;2.60;2.50;;;22.60;99.90;;;;;;5085732;28;20047;-83